Haskell, Oklahoma
Current Conditions -  °F | °C
As of 12:15 AM on Saturday 29 Nov 2014 (Local Time) from KOKM Reporting Station
Clear Clear  
Wind Chill: 57°   Ceiling: Unl
Heat Index: 57°   Visibility: 10mi
Dew Point: 48°   Wind: 8mph
Humidity: 71%   Direction: 190°S
Pressure: 29.84"   Gusts: 16mph
Location:  35.82°N, 95.67°W
Report Text: KOKM 290615Z AUTO 19007G14KT 10SM CLR 14/09 A2984 RMK AO2 T01410090
Loading
Personal Weather Stations






























Interactive Weather Map New forecast layout! Learn more

10-Day Weather Forecast

Advertisements
Track Severe Weather on mobile